メインページ
METAR-TAF:

METAR-TAF

空港 :

Caldwell, ニュージャージー州, アメリカ合衆国

緯度: 40-52-35N, 経度: 074-16-59W, 海抜: 52m

現時点の気象観測

当レポートは45分前の17:53(UTC)に作成
南/南西の風 7kt
気温 27°C
湿度 51%
気圧 1022 hPa
視程: 16.1km
晴天

METAR: KCDW 261753Z 20007KT 10SM CLR 27/16 A3019 RMK AO2 SLP227 T02670161 10272 20167 58012

時間: 14:38 (18:38 UTC)


TAF: 見つかりません

4,000以上の空港の気象観測と天気予報(METAR報とTAF報)

利用可能な観測所は地図上に黄色い丸と赤い丸で示す。

丸の上にカーソルを重ねると観測所名を参照できる。

次にクリックすると気象観測と天気予報を参照できる。

マップの切り替え:黒色「×」印の緑ボタンをクリックして拡大、「-」印の緑ボタンをクリックして縮小、緑色の三角印をクリックして隣りの地図に切り替え


METAR-TAF: